메인 페이지
METAR-TAF:

METAR-TAF

공항 :

테헤란 메흐라바드 국제공항

테헤란, 이란

위도: 35-41N, 경도: 051-21E, 고도: 1204m

현재 날씨관측

예보는 19분 전, 05:30시(UTC)에 발표되었습니다.
남서4kt
온도 33°C
습도 19%
기압 1007 hPa
시정: 7000m
고도 12000ft 상공 구름 보통

METAR: OIII 230530Z 23004KT 7000 SCT120 33/06 Q1006 A2973

시각: 10:19 (05:49 UTC)

예보

예보는 6 시간 49분 전, 23:00시(UTC)에 발표되었습니다.
예보 대상 시간: 23일 00시부터 24일 06시까지 (UTC)
북동8kt
시정: 8000m
고도 10000ft 상공 구름 보통
일시적
23일 07시부터 23일 15시까지 (UTC)
동남동17kt

TAF: OIII 222300Z 2300/2406 04004MPS 8000 SCT100 TEMPO 2307/2315 12009MPS

4,000개 이상의 공항 관측 자료 및 예보 (METAR 및 TAF 보고).

지도상에서 검색 가능한 기상관측소가 노란 점과 빨간 점으로 표시되어 있습니다.

기상관측소 명을 보려면 표시 위로 마우스를 이동하세요.

날씨 관측과 예보를 보려면 클릭하세요.

지도 변경 : 확대하려면 엑스 표시가 있는 녹색 버튼, 축소하려면 빼기 표시가 있는 녹색 버튼, 다음 페이지의 지도를 보려면 녹색 화살표를 클릭하세요.


METAR-TAF: